VTD4916 USRR-USHN
Flight info
| Callsign | VTD4916 |
|---|---|
| Flight time | 1h 2m |
| Altitude | 10000 |
| Route | OGIKA M59 SORLI |
| Aircraft | B738/M-SDE1FGHIJ1RWXYZ/LB1 |
Departure
| Time | 2026-04-24 06:28 |
|---|---|
| Airport | Surgut International Airport (USRR) |
Arrival
| Time | 2026-04-24 07:30 |
|---|---|
| Airport | Nyagan Airport (USHN) |
| Time | Latitude | Longitude | Altitude | Speed | Heading |
|---|---|---|---|---|---|
| 2026-04-24 06:05 | 61.34126 | 73.39546 | 207 ft | 0 kts | 360° |
| 2026-04-24 06:22 | 61.34129 | 73.39546 | 207 ft | 1 kts | 360° |
| 2026-04-24 06:22 | 61.34146 | 73.39545 | 214 ft | 3 kts | 355° |
| 2026-04-24 06:22 | 61.34169 | 73.39514 | 210 ft | 5 kts | 307° |
| 2026-04-24 06:22 | 61.34177 | 73.39452 | 208 ft | 1 kts | 275° |
| 2026-04-24 06:23 | 61.34177 | 73.39427 | 207 ft | 3 kts | 270° |
| 2026-04-24 06:23 | 61.34177 | 73.39366 | 207 ft | 6 kts | 269° |
| 2026-04-24 06:23 | 61.34176 | 73.39261 | 208 ft | 9 kts | 268° |
| 2026-04-24 06:23 | 61.34174 | 73.39113 | 213 ft | 11 kts | 269° |
| 2026-04-24 06:24 | 61.34174 | 73.38939 | 213 ft | 13 kts | 270° |
| 2026-04-24 06:24 | 61.34173 | 73.38746 | 209 ft | 14 kts | 269° |
| 2026-04-24 06:24 | 61.34172 | 73.38535 | 214 ft | 15 kts | 269° |
| 2026-04-24 06:24 | 61.34171 | 73.38306 | 215 ft | 16 kts | 273° |
| 2026-04-24 06:25 | 61.34239 | 73.38127 | 209 ft | 17 kts | 321° |
| 2026-04-24 06:25 | 61.34353 | 73.38043 | 196 ft | 18 kts | 13° |
| 2026-04-24 06:25 | 61.34384 | 73.38166 | 190 ft | 9 kts | 96° |
| 2026-04-24 06:25 | 61.34383 | 73.38263 | 200 ft | 0 kts | 89° |
| 2026-04-24 06:27 | 61.34383 | 73.38264 | 200 ft | 0 kts | 90° |
| 2026-04-24 06:27 | 61.34383 | 73.38561 | 199 ft | 59 kts | 89° |
| 2026-04-24 06:27 | 61.34386 | 73.39978 | 211 ft | 135 kts | 90° |
| 2026-04-24 06:27 | 61.34382 | 73.42223 | 628 ft | 164 kts | 91° |
| 2026-04-24 06:28 | 61.34407 | 73.44624 | 1565 ft | 170 kts | 87° |
| 2026-04-24 06:28 | 61.34799 | 73.46994 | 2250 ft | 186 kts | 54° |
| 2026-04-24 06:28 | 61.35903 | 73.48415 | 2969 ft | 194 kts | 9° |
| 2026-04-24 06:28 | 61.37198 | 73.47973 | 3839 ft | 191 kts | 327° |
| 2026-04-24 06:29 | 61.38029 | 73.46066 | 4905 ft | 171 kts | 289° |
| 2026-04-24 06:29 | 61.38423 | 73.43833 | 5853 ft | 165 kts | 295° |
| 2026-04-24 06:29 | 61.39155 | 73.41907 | 6528 ft | 171 kts | 310° |
| 2026-04-24 06:29 | 61.40006 | 73.40270 | 7375 ft | 163 kts | 314° |
| 2026-04-24 06:30 | 61.40834 | 73.38655 | 7953 ft | 171 kts | 306° |
| 2026-04-24 06:30 | 61.41607 | 73.36544 | 8211 ft | 194 kts | 302° |
| 2026-04-24 06:30 | 61.42449 | 73.34150 | 8395 ft | 215 kts | 303° |
| 2026-04-24 06:30 | 61.43393 | 73.31538 | 8574 ft | 236 kts | 304° |
| 2026-04-24 06:31 | 61.44448 | 73.28704 | 8772 ft | 258 kts | 306° |
| 2026-04-24 06:31 | 61.45594 | 73.25721 | 9362 ft | 265 kts | 306° |
| 2026-04-24 06:31 | 61.46770 | 73.22719 | 9704 ft | 272 kts | 307° |
| 2026-04-24 06:31 | 61.47991 | 73.19650 | 9715 ft | 276 kts | 307° |
| 2026-04-24 06:32 | 61.49226 | 73.16582 | 9716 ft | 275 kts | 307° |
| 2026-04-24 06:32 | 61.50459 | 73.13540 | 9727 ft | 274 kts | 308° |
| 2026-04-24 06:32 | 61.51695 | 73.10502 | 9726 ft | 275 kts | 308° |
| 2026-04-24 06:32 | 61.52938 | 73.07457 | 9721 ft | 276 kts | 308° |
| 2026-04-24 06:33 | 61.54183 | 73.04408 | 9714 ft | 276 kts | 308° |
| 2026-04-24 06:33 | 61.55425 | 73.01367 | 9722 ft | 275 kts | 308° |
| 2026-04-24 06:33 | 61.56668 | 72.98322 | 9733 ft | 275 kts | 308° |
| 2026-04-24 06:33 | 61.57909 | 72.95277 | 9735 ft | 276 kts | 308° |
| 2026-04-24 06:34 | 61.59153 | 72.92223 | 9721 ft | 275 kts | 308° |
| 2026-04-24 06:34 | 61.60394 | 72.89176 | 9720 ft | 275 kts | 308° |
| 2026-04-24 06:34 | 61.61636 | 72.86123 | 9717 ft | 275 kts | 308° |
| 2026-04-24 06:34 | 61.62877 | 72.83069 | 9732 ft | 276 kts | 308° |
| 2026-04-24 06:35 | 61.64118 | 72.80007 | 9715 ft | 275 kts | 308° |
| 2026-04-24 06:35 | 61.65358 | 72.76949 | 9727 ft | 275 kts | 308° |
| 2026-04-24 06:35 | 61.66598 | 72.73884 | 9719 ft | 276 kts | 308° |
| 2026-04-24 06:35 | 61.67838 | 72.70810 | 9720 ft | 276 kts | 308° |
| 2026-04-24 06:36 | 61.69080 | 72.67734 | 9743 ft | 276 kts | 308° |
| 2026-04-24 06:36 | 61.70321 | 72.64654 | 9732 ft | 276 kts | 308° |
| 2026-04-24 06:36 | 61.71558 | 72.61582 | 9740 ft | 275 kts | 308° |
| 2026-04-24 06:36 | 61.72792 | 72.58510 | 9731 ft | 275 kts | 308° |
| 2026-04-24 06:37 | 61.74029 | 72.55430 | 9740 ft | 276 kts | 308° |
| 2026-04-24 06:37 | 61.75266 | 72.52346 | 9731 ft | 275 kts | 308° |
| 2026-04-24 06:37 | 61.76501 | 72.49257 | 9725 ft | 276 kts | 308° |
| 2026-04-24 06:37 | 61.77736 | 72.46166 | 9724 ft | 275 kts | 307° |
| 2026-04-24 06:38 | 61.78685 | 72.42729 | 9739 ft | 271 kts | 288° |
| 2026-04-24 06:38 | 61.79248 | 72.38951 | 9733 ft | 270 kts | 285° |
| 2026-04-24 06:38 | 61.79797 | 72.35159 | 9722 ft | 270 kts | 285° |
| 2026-04-24 06:38 | 61.80349 | 72.31366 | 9735 ft | 270 kts | 285° |
| 2026-04-24 06:39 | 61.80901 | 72.27579 | 9734 ft | 271 kts | 285° |
| 2026-04-24 06:39 | 61.81457 | 72.23778 | 9731 ft | 271 kts | 285° |
| 2026-04-24 06:39 | 61.82015 | 72.19967 | 9732 ft | 272 kts | 285° |
| 2026-04-24 06:39 | 61.82576 | 72.16146 | 9726 ft | 273 kts | 286° |
| 2026-04-24 06:40 | 61.83136 | 72.12326 | 9726 ft | 273 kts | 285° |
| 2026-04-24 06:40 | 61.83697 | 72.08498 | 9737 ft | 273 kts | 286° |
| 2026-04-24 06:40 | 61.84257 | 72.04667 | 9734 ft | 273 kts | 285° |
| 2026-04-24 06:40 | 61.84816 | 72.00834 | 9743 ft | 273 kts | 285° |
| 2026-04-24 06:41 | 61.85374 | 71.97005 | 9743 ft | 273 kts | 285° |
| 2026-04-24 06:41 | 61.85934 | 71.93160 | 9735 ft | 273 kts | 285° |
| 2026-04-24 06:41 | 61.86491 | 71.89320 | 9739 ft | 273 kts | 285° |
| 2026-04-24 06:41 | 61.87047 | 71.85477 | 9734 ft | 273 kts | 285° |
| 2026-04-24 06:42 | 61.87602 | 71.81638 | 9740 ft | 273 kts | 285° |
| 2026-04-24 06:42 | 61.88157 | 71.77791 | 9730 ft | 274 kts | 285° |
| 2026-04-24 06:42 | 61.88711 | 71.73941 | 9736 ft | 273 kts | 285° |
| 2026-04-24 06:42 | 61.89264 | 71.70093 | 9738 ft | 274 kts | 285° |
| 2026-04-24 06:43 | 61.89816 | 71.66235 | 9737 ft | 274 kts | 285° |
| 2026-04-24 06:43 | 61.90367 | 71.62371 | 9723 ft | 274 kts | 285° |
| 2026-04-24 06:43 | 61.90916 | 71.58523 | 9744 ft | 273 kts | 285° |
| 2026-04-24 06:43 | 61.91464 | 71.54673 | 9728 ft | 273 kts | 285° |
| 2026-04-24 06:44 | 61.92010 | 71.50832 | 9739 ft | 273 kts | 285° |
| 2026-04-24 06:44 | 61.92555 | 71.46983 | 9733 ft | 273 kts | 285° |
| 2026-04-24 06:44 | 61.93098 | 71.43134 | 9738 ft | 272 kts | 285° |
| 2026-04-24 06:44 | 61.93639 | 71.39300 | 9734 ft | 273 kts | 285° |
| 2026-04-24 06:45 | 61.94183 | 71.35441 | 9725 ft | 273 kts | 285° |
| 2026-04-24 06:45 | 61.94727 | 71.31593 | 9744 ft | 272 kts | 285° |
| 2026-04-24 06:45 | 61.95270 | 71.27743 | 9730 ft | 273 kts | 285° |
| 2026-04-24 06:45 | 61.95810 | 71.23900 | 9740 ft | 272 kts | 285° |
| 2026-04-24 06:46 | 61.96350 | 71.20050 | 9744 ft | 272 kts | 285° |
| 2026-04-24 06:46 | 61.96889 | 71.16208 | 9755 ft | 272 kts | 285° |
| 2026-04-24 06:46 | 61.97428 | 71.12352 | 9736 ft | 272 kts | 285° |
| 2026-04-24 06:46 | 61.97965 | 71.08508 | 9745 ft | 272 kts | 285° |
| 2026-04-24 06:47 | 61.98500 | 71.04653 | 9735 ft | 272 kts | 285° |
| 2026-04-24 06:47 | 61.99035 | 71.00797 | 9738 ft | 272 kts | 285° |
| 2026-04-24 06:47 | 61.99569 | 70.96939 | 9741 ft | 272 kts | 284° |
| 2026-04-24 06:47 | 62.00051 | 70.93051 | 9735 ft | 272 kts | 283° |
| 2026-04-24 06:48 | 62.00499 | 70.89141 | 9727 ft | 272 kts | 282° |
| 2026-04-24 06:48 | 62.00937 | 70.85233 | 9737 ft | 272 kts | 282° |
| 2026-04-24 06:48 | 62.01375 | 70.81317 | 9739 ft | 273 kts | 282° |
| 2026-04-24 06:48 | 62.01814 | 70.77395 | 9737 ft | 273 kts | 282° |
| 2026-04-24 06:49 | 62.02254 | 70.73468 | 9734 ft | 274 kts | 282° |
| 2026-04-24 06:49 | 62.02695 | 70.69530 | 9730 ft | 274 kts | 282° |
| 2026-04-24 06:49 | 62.03136 | 70.65594 | 9721 ft | 274 kts | 282° |
| 2026-04-24 06:49 | 62.03577 | 70.61657 | 9735 ft | 274 kts | 282° |
| 2026-04-24 06:50 | 62.04017 | 70.57715 | 9730 ft | 274 kts | 282° |
| 2026-04-24 06:50 | 62.04457 | 70.53772 | 9722 ft | 274 kts | 282° |
| 2026-04-24 06:50 | 62.04895 | 70.49832 | 9726 ft | 274 kts | 282° |
| 2026-04-24 06:50 | 62.05334 | 70.45883 | 9723 ft | 274 kts | 282° |
| 2026-04-24 06:51 | 62.05770 | 70.41938 | 9723 ft | 274 kts | 282° |
| 2026-04-24 06:51 | 62.06206 | 70.37990 | 9726 ft | 274 kts | 282° |
| 2026-04-24 06:51 | 62.06640 | 70.34045 | 9723 ft | 274 kts | 282° |
| 2026-04-24 06:51 | 62.07073 | 70.30107 | 9714 ft | 273 kts | 282° |
| 2026-04-24 06:52 | 62.07505 | 70.26173 | 9716 ft | 273 kts | 282° |
| 2026-04-24 06:52 | 62.07934 | 70.22232 | 9712 ft | 273 kts | 282° |
| 2026-04-24 06:52 | 62.08361 | 70.18288 | 9713 ft | 274 kts | 282° |
| 2026-04-24 06:52 | 62.08790 | 70.14339 | 9710 ft | 274 kts | 282° |
| 2026-04-24 06:53 | 62.09219 | 70.10382 | 9702 ft | 274 kts | 282° |
| 2026-04-24 06:53 | 62.09645 | 70.06441 | 9706 ft | 273 kts | 282° |
| 2026-04-24 06:53 | 62.10068 | 70.02500 | 9701 ft | 273 kts | 282° |
| 2026-04-24 06:53 | 62.10490 | 69.98564 | 9703 ft | 272 kts | 282° |
| 2026-04-24 06:54 | 62.10908 | 69.94652 | 9703 ft | 271 kts | 282° |
| 2026-04-24 06:54 | 62.11328 | 69.90717 | 9702 ft | 272 kts | 282° |
| 2026-04-24 06:54 | 62.11746 | 69.86787 | 9703 ft | 272 kts | 282° |
| 2026-04-24 06:54 | 62.12163 | 69.82854 | 9703 ft | 272 kts | 282° |
| 2026-04-24 06:55 | 62.12579 | 69.78916 | 9701 ft | 272 kts | 282° |
| 2026-04-24 06:55 | 62.12994 | 69.74976 | 9707 ft | 273 kts | 281° |
| 2026-04-24 06:55 | 62.13410 | 69.71019 | 9703 ft | 273 kts | 282° |
| 2026-04-24 06:55 | 62.13825 | 69.67062 | 9704 ft | 274 kts | 282° |
| 2026-04-24 06:56 | 62.14239 | 69.63093 | 9693 ft | 274 kts | 281° |
| 2026-04-24 06:56 | 62.14654 | 69.59111 | 9694 ft | 275 kts | 281° |
| 2026-04-24 06:56 | 62.15067 | 69.55133 | 9696 ft | 275 kts | 281° |
| 2026-04-24 06:56 | 62.15480 | 69.51146 | 9685 ft | 275 kts | 281° |
| 2026-04-24 06:57 | 62.15891 | 69.47160 | 9694 ft | 275 kts | 281° |
| 2026-04-24 06:57 | 62.16300 | 69.43180 | 9684 ft | 274 kts | 281° |
| 2026-04-24 06:57 | 62.16707 | 69.39209 | 9691 ft | 274 kts | 281° |
| 2026-04-24 06:57 | 62.17113 | 69.35242 | 9689 ft | 273 kts | 281° |
| 2026-04-24 06:58 | 62.17518 | 69.31275 | 9685 ft | 273 kts | 281° |
| 2026-04-24 06:58 | 62.17921 | 69.27304 | 9693 ft | 274 kts | 281° |
| 2026-04-24 06:58 | 62.18324 | 69.23327 | 9683 ft | 274 kts | 281° |
| 2026-04-24 06:58 | 62.18725 | 69.19352 | 9696 ft | 274 kts | 281° |
| 2026-04-24 06:59 | 62.19126 | 69.15373 | 9693 ft | 274 kts | 281° |
| 2026-04-24 06:59 | 62.19526 | 69.11388 | 9683 ft | 274 kts | 281° |
| 2026-04-24 06:59 | 62.19925 | 69.07405 | 9686 ft | 274 kts | 281° |
| 2026-04-24 06:59 | 62.20323 | 69.03416 | 9689 ft | 274 kts | 281° |
| 2026-04-24 07:00 | 62.20720 | 68.99430 | 9690 ft | 274 kts | 281° |
| 2026-04-24 07:00 | 62.21114 | 68.95445 | 9695 ft | 274 kts | 281° |
| 2026-04-24 07:00 | 62.21508 | 68.91456 | 9689 ft | 275 kts | 281° |
| 2026-04-24 07:00 | 62.21902 | 68.87458 | 9693 ft | 275 kts | 281° |
| 2026-04-24 07:01 | 62.22293 | 68.83468 | 9692 ft | 274 kts | 281° |
| 2026-04-24 07:01 | 62.22684 | 68.79479 | 9697 ft | 274 kts | 281° |
| 2026-04-24 07:01 | 62.23072 | 68.75492 | 9699 ft | 273 kts | 281° |
| 2026-04-24 07:01 | 62.23460 | 68.71510 | 9696 ft | 273 kts | 281° |
| 2026-04-24 07:02 | 62.23846 | 68.67531 | 9696 ft | 274 kts | 281° |
| 2026-04-24 07:02 | 62.24231 | 68.63548 | 9700 ft | 274 kts | 281° |
| 2026-04-24 07:02 | 62.24615 | 68.59561 | 9695 ft | 273 kts | 281° |
| 2026-04-24 07:02 | 62.24997 | 68.55583 | 9705 ft | 273 kts | 281° |
| 2026-04-24 07:03 | 62.25377 | 68.51600 | 9699 ft | 273 kts | 281° |
| 2026-04-24 07:03 | 62.25757 | 68.47616 | 9697 ft | 273 kts | 281° |
| 2026-04-24 07:03 | 62.26137 | 68.43626 | 9696 ft | 274 kts | 281° |
| 2026-04-24 07:03 | 62.26517 | 68.39610 | 9695 ft | 275 kts | 281° |
| 2026-04-24 07:04 | 62.26898 | 68.35585 | 9699 ft | 276 kts | 281° |
| 2026-04-24 07:04 | 62.27277 | 68.31554 | 9691 ft | 275 kts | 280° |
| 2026-04-24 07:04 | 62.27653 | 68.27544 | 9690 ft | 274 kts | 280° |
| 2026-04-24 07:04 | 62.28027 | 68.23545 | 9697 ft | 273 kts | 280° |
| 2026-04-24 07:05 | 62.28399 | 68.19555 | 9694 ft | 273 kts | 280° |
| 2026-04-24 07:05 | 62.28769 | 68.15569 | 9702 ft | 272 kts | 280° |
| 2026-04-24 07:05 | 62.29138 | 68.11586 | 9695 ft | 272 kts | 280° |
| 2026-04-24 07:05 | 62.29506 | 68.07604 | 9693 ft | 272 kts | 280° |
| 2026-04-24 07:06 | 62.29872 | 68.03624 | 9695 ft | 272 kts | 280° |
| 2026-04-24 07:06 | 62.30237 | 67.99639 | 9694 ft | 272 kts | 280° |
| 2026-04-24 07:06 | 62.30601 | 67.95654 | 9696 ft | 272 kts | 280° |
| 2026-04-24 07:06 | 62.30963 | 67.91673 | 9705 ft | 272 kts | 280° |
| 2026-04-24 07:07 | 62.31327 | 67.87677 | 9695 ft | 273 kts | 280° |
| 2026-04-24 07:07 | 62.31690 | 67.83675 | 9700 ft | 274 kts | 280° |
| 2026-04-24 07:07 | 62.32414 | 67.75621 | 9699 ft | 276 kts | 280° |
| 2026-04-24 07:08 | 62.32775 | 67.71589 | 9699 ft | 274 kts | 280° |
| 2026-04-24 07:08 | 62.33133 | 67.67571 | 9704 ft | 274 kts | 280° |
| 2026-04-24 07:08 | 62.33489 | 67.63559 | 9706 ft | 273 kts | 279° |
| 2026-04-24 07:08 | 62.33842 | 67.59557 | 9696 ft | 272 kts | 279° |
| 2026-04-24 07:09 | 62.34194 | 67.55565 | 9695 ft | 273 kts | 279° |
| 2026-04-24 07:09 | 62.34544 | 67.51573 | 9702 ft | 272 kts | 279° |
| 2026-04-24 07:09 | 62.34893 | 67.47580 | 9705 ft | 272 kts | 279° |
| 2026-04-24 07:09 | 62.35241 | 67.43596 | 9703 ft | 272 kts | 279° |
| 2026-04-24 07:10 | 62.35589 | 67.39594 | 9699 ft | 273 kts | 279° |
| 2026-04-24 07:10 | 62.35937 | 67.35576 | 9721 ft | 273 kts | 279° |
| 2026-04-24 07:10 | 62.36284 | 67.31550 | 9706 ft | 275 kts | 279° |
| 2026-04-24 07:10 | 62.36630 | 67.27519 | 9721 ft | 274 kts | 279° |
| 2026-04-24 07:11 | 62.36975 | 67.23498 | 9705 ft | 273 kts | 279° |
| 2026-04-24 07:11 | 62.37318 | 67.19483 | 9708 ft | 273 kts | 279° |
| 2026-04-24 07:11 | 62.37660 | 67.15464 | 9711 ft | 274 kts | 279° |
| 2026-04-24 07:11 | 62.38001 | 67.11444 | 9708 ft | 273 kts | 279° |
| 2026-04-24 07:12 | 62.38342 | 67.07430 | 9712 ft | 273 kts | 279° |
| 2026-04-24 07:12 | 62.38680 | 67.03407 | 9707 ft | 274 kts | 279° |
| 2026-04-24 07:12 | 62.39018 | 66.99375 | 9714 ft | 274 kts | 279° |
| 2026-04-24 07:12 | 62.39355 | 66.95344 | 9717 ft | 274 kts | 279° |
| 2026-04-24 07:13 | 62.39690 | 66.91311 | 9716 ft | 274 kts | 279° |
| 2026-04-24 07:13 | 62.40025 | 66.87277 | 9720 ft | 274 kts | 279° |
| 2026-04-24 07:13 | 62.40359 | 66.83242 | 9708 ft | 274 kts | 279° |
| 2026-04-24 07:13 | 62.40690 | 66.79215 | 9710 ft | 273 kts | 279° |
| 2026-04-24 07:14 | 62.41020 | 66.75197 | 9713 ft | 273 kts | 279° |
| 2026-04-24 07:14 | 62.41348 | 66.71179 | 9718 ft | 273 kts | 279° |
| 2026-04-24 07:14 | 62.41677 | 66.67142 | 9709 ft | 274 kts | 279° |
| 2026-04-24 07:14 | 62.42005 | 66.63101 | 9708 ft | 274 kts | 279° |
| 2026-04-24 07:15 | 62.42331 | 66.59055 | 9714 ft | 274 kts | 279° |
| 2026-04-24 07:15 | 62.42657 | 66.55006 | 9708 ft | 275 kts | 279° |
| 2026-04-24 07:15 | 62.42983 | 66.50950 | 9698 ft | 275 kts | 279° |
| 2026-04-24 07:15 | 62.43307 | 66.46900 | 9709 ft | 275 kts | 279° |
| 2026-04-24 07:16 | 62.43630 | 66.42842 | 9704 ft | 275 kts | 278° |
| 2026-04-24 07:16 | 62.43951 | 66.38781 | 9701 ft | 275 kts | 278° |
| 2026-04-24 07:16 | 62.44272 | 66.34716 | 9702 ft | 275 kts | 279° |
| 2026-04-24 07:16 | 62.44591 | 66.30658 | 9698 ft | 275 kts | 278° |
| 2026-04-24 07:17 | 62.44910 | 66.26599 | 9704 ft | 275 kts | 278° |
| 2026-04-24 07:17 | 62.45229 | 66.22525 | 9695 ft | 276 kts | 278° |
| 2026-04-24 07:17 | 62.45545 | 66.18472 | 9696 ft | 271 kts | 278° |
| 2026-04-24 07:17 | 62.45853 | 66.14489 | 9691 ft | 268 kts | 278° |
| 2026-04-24 07:18 | 62.46158 | 66.10542 | 9689 ft | 267 kts | 278° |
| 2026-04-24 07:18 | 62.46263 | 66.06594 | 9687 ft | 263 kts | 259° |
| 2026-04-24 07:18 | 62.45563 | 66.02980 | 9586 ft | 266 kts | 234° |
| 2026-04-24 07:18 | 62.44197 | 66.00366 | 9440 ft | 266 kts | 210° |
| 2026-04-24 07:19 | 62.42546 | 65.98557 | 9175 ft | 265 kts | 204° |
| 2026-04-24 07:19 | 62.40801 | 65.97321 | 8917 ft | 264 kts | 196° |
| 2026-04-24 07:19 | 62.39021 | 65.96392 | 8626 ft | 264 kts | 194° |
| 2026-04-24 07:19 | 62.37241 | 65.95521 | 8341 ft | 263 kts | 194° |
| 2026-04-24 07:20 | 62.35465 | 65.94649 | 8070 ft | 262 kts | 194° |
| 2026-04-24 07:20 | 62.33696 | 65.93767 | 7789 ft | 261 kts | 194° |
| 2026-04-24 07:20 | 62.31935 | 65.92876 | 7512 ft | 260 kts | 195° |
| 2026-04-24 07:20 | 62.30182 | 65.91980 | 7237 ft | 259 kts | 195° |
| 2026-04-24 07:21 | 62.28433 | 65.91080 | 6968 ft | 259 kts | 195° |
| 2026-04-24 07:21 | 62.26689 | 65.90179 | 6690 ft | 258 kts | 195° |
| 2026-04-24 07:21 | 62.24947 | 65.89277 | 6406 ft | 258 kts | 195° |
| 2026-04-24 07:21 | 62.23211 | 65.88376 | 6145 ft | 257 kts | 195° |
| 2026-04-24 07:22 | 62.21477 | 65.87475 | 5860 ft | 257 kts | 195° |
| 2026-04-24 07:22 | 62.19746 | 65.86577 | 5569 ft | 256 kts | 195° |
| 2026-04-24 07:22 | 62.18023 | 65.85683 | 5299 ft | 255 kts | 195° |
| 2026-04-24 07:22 | 62.16319 | 65.84800 | 5068 ft | 251 kts | 195° |
| 2026-04-24 07:23 | 62.14633 | 65.83926 | 4803 ft | 248 kts | 195° |
| 2026-04-24 07:23 | 62.12965 | 65.83062 | 4540 ft | 246 kts | 195° |
| 2026-04-24 07:23 | 62.11314 | 65.82208 | 4276 ft | 244 kts | 195° |
| 2026-04-24 07:23 | 62.09678 | 65.81362 | 4008 ft | 241 kts | 195° |
| 2026-04-24 07:24 | 62.08056 | 65.80525 | 3743 ft | 239 kts | 195° |
| 2026-04-24 07:24 | 62.06447 | 65.79695 | 3479 ft | 238 kts | 195° |
| 2026-04-24 07:24 | 62.04850 | 65.78871 | 3218 ft | 236 kts | 194° |
| 2026-04-24 07:24 | 62.03251 | 65.78047 | 2966 ft | 237 kts | 194° |
| 2026-04-24 07:25 | 62.01651 | 65.77225 | 2697 ft | 238 kts | 194° |
| 2026-04-24 07:25 | 62.00052 | 65.76404 | 2445 ft | 236 kts | 194° |
| 2026-04-24 07:25 | 61.98462 | 65.75588 | 2330 ft | 235 kts | 194° |
| 2026-04-24 07:25 | 61.96875 | 65.74775 | 2312 ft | 234 kts | 194° |
| 2026-04-24 07:26 | 61.95413 | 65.73420 | 2222 ft | 228 kts | 220° |
| 2026-04-24 07:26 | 61.94571 | 65.70709 | 2150 ft | 220 kts | 252° |
| 2026-04-24 07:26 | 61.94431 | 65.67530 | 2027 ft | 217 kts | 276° |
| 2026-04-24 07:26 | 61.94929 | 65.64602 | 1982 ft | 205 kts | 292° |
| 2026-04-24 07:27 | 61.95608 | 65.62057 | 1943 ft | 194 kts | 311° |
| 2026-04-24 07:27 | 61.96792 | 65.60843 | 1982 ft | 194 kts | 349° |
| 2026-04-24 07:27 | 61.98117 | 65.60610 | 1968 ft | 188 kts | 353° |
| 2026-04-24 07:27 | 61.99388 | 65.60450 | 1950 ft | 182 kts | 356° |
| 2026-04-24 07:28 | 62.00647 | 65.60477 | 1955 ft | 179 kts | 359° |
| 2026-04-24 07:28 | 62.01863 | 65.60579 | 1907 ft | 172 kts | 0° |
| 2026-04-24 07:28 | 62.03045 | 65.60684 | 1799 ft | 169 kts | 360° |
| 2026-04-24 07:28 | 62.04213 | 65.60786 | 1539 ft | 165 kts | 0° |
| 2026-04-24 07:29 | 62.05335 | 65.60884 | 1326 ft | 157 kts | 0° |
| 2026-04-24 07:29 | 62.06410 | 65.60992 | 1064 ft | 155 kts | 1° |
| 2026-04-24 07:29 | 62.07482 | 65.61074 | 844 ft | 154 kts | 1° |
| 2026-04-24 07:29 | 62.08550 | 65.61164 | 641 ft | 154 kts | 1° |
| 2026-04-24 07:30 | 62.09602 | 65.61262 | 436 ft | 155 kts | 1° |
| 2026-04-24 07:30 | 62.10663 | 65.61334 | 359 ft | 140 kts | 2° |
| 2026-04-24 07:30 | 62.11263 | 65.61392 | 360 ft | 33 kts | 4° |
| 2026-04-24 07:30 | 62.11304 | 65.61399 | 361 ft | 4 kts | 4° |
| 2026-04-24 07:31 | 62.11379 | 65.61389 | 361 ft | 15 kts | 351° |
| 2026-04-24 07:31 | 62.11433 | 65.61394 | 359 ft | 1 kts | 63° |
| 2026-04-24 07:31 | 62.11429 | 65.61410 | 362 ft | 2 kts | 130° |
| 2026-04-24 07:31 | 62.11390 | 65.61420 | 361 ft | 10 kts | 184° |
| 2026-04-24 07:32 | 62.11290 | 65.61403 | 358 ft | 18 kts | 183° |
| 2026-04-24 07:32 | 62.11134 | 65.61386 | 357 ft | 25 kts | 183° |
| 2026-04-24 07:32 | 62.10960 | 65.61371 | 356 ft | 24 kts | 182° |
| 2026-04-24 07:32 | 62.10824 | 65.61330 | 357 ft | 10 kts | 227° |
| 2026-04-24 07:33 | 62.10813 | 65.61194 | 358 ft | 10 kts | 275° |
| 2026-04-24 07:33 | 62.10818 | 65.61052 | 353 ft | 10 kts | 272° |
| 2026-04-24 07:33 | 62.10805 | 65.60979 | 361 ft | 3 kts | 213° |
| 2026-04-24 07:33 | 62.10775 | 65.60964 | 353 ft | 6 kts | 187° |
| 2026-04-24 07:34 | 62.10729 | 65.60941 | 355 ft | 8 kts | 212° |
| 2026-04-24 07:34 | 62.10722 | 65.60873 | 353 ft | 3 kts | 298° |
| 2026-04-24 07:34 | 62.10747 | 65.60850 | 354 ft | 5 kts | 351° |
| 2026-04-24 07:34 | 62.10770 | 65.60849 | 359 ft | 0 kts | 360° |